createdAt,value
2022-07-29T00:02:16.040Z,21.00
2022-07-29T00:04:42.893Z,20.90
2022-07-29T00:07:09.777Z,20.80
2022-07-29T00:09:50.350Z,20.80
2022-07-29T00:12:25.235Z,20.90
2022-07-29T00:14:53.305Z,20.90
2022-07-29T00:17:20.089Z,20.80
2022-07-29T00:19:46.848Z,20.90
2022-07-29T00:22:13.619Z,20.90
2022-07-29T00:24:40.412Z,20.80
2022-07-29T00:27:07.171Z,20.80
2022-07-29T00:29:34.927Z,20.70
2022-07-29T00:32:02.519Z,20.70
2022-07-29T00:34:48.065Z,20.70
2022-07-29T00:37:14.817Z,20.70
2022-07-29T00:39:41.645Z,20.70
2022-07-29T00:42:08.980Z,20.80
2022-07-29T00:44:39.107Z,20.80
2022-07-29T00:47:06.236Z,20.80
2022-07-29T00:49:33.520Z,20.80
2022-07-29T00:52:01.693Z,20.80
2022-07-29T00:54:28.514Z,20.70
2022-07-29T00:56:55.289Z,20.70
2022-07-29T00:59:22.081Z,20.70
2022-07-29T01:01:48.918Z,20.60
2022-07-29T01:04:16.164Z,20.60
2022-07-29T01:06:44.114Z,20.50
2022-07-29T01:09:10.864Z,20.50
2022-07-29T01:11:37.634Z,20.50
2022-07-29T01:14:04.580Z,20.40
2022-07-29T01:16:37.116Z,20.40
2022-07-29T01:19:08.804Z,20.40
2022-07-29T01:21:51.933Z,20.30
2022-07-29T01:24:21.926Z,20.30
2022-07-29T01:27:05.627Z,20.20
2022-07-29T01:29:36.027Z,20.20
2022-07-29T01:32:08.886Z,20.20
2022-07-29T01:34:57.141Z,20.20
2022-07-29T01:37:31.041Z,20.20
2022-07-29T01:39:58.549Z,20.20
2022-07-29T01:42:43.553Z,20.20
2022-07-29T01:45:22.430Z,20.20
2022-07-29T01:47:57.279Z,20.20
2022-07-29T01:50:24.692Z,20.20
2022-07-29T01:52:53.913Z,20.20
2022-07-29T01:55:21.225Z,20.10
2022-07-29T01:57:48.745Z,20.10
2022-07-29T02:00:15.913Z,20.10
2022-07-29T02:02:43.563Z,20.10
2022-07-29T02:05:11.369Z,20.10
2022-07-29T02:07:38.156Z,20.00
2022-07-29T02:10:05.138Z,20.00
2022-07-29T02:12:31.898Z,19.90
2022-07-29T02:14:58.639Z,19.90
2022-07-29T02:17:26.431Z,19.80
2022-07-29T02:19:53.765Z,19.80
2022-07-29T02:22:20.591Z,19.70
2022-07-29T02:24:47.351Z,19.70
2022-07-29T02:27:14.136Z,19.80
2022-07-29T02:29:40.909Z,19.70
2022-07-29T02:32:07.732Z,19.70
2022-07-29T02:34:35.216Z,19.70
2022-07-29T02:37:02.038Z,19.70
2022-07-29T02:39:28.800Z,19.60
2022-07-29T02:42:00.354Z,19.60
2022-07-29T02:44:31.368Z,19.50
2022-07-29T02:47:04.365Z,19.50
2022-07-29T02:49:52.362Z,19.50
2022-07-29T02:52:25.312Z,19.50
2022-07-29T02:54:59.477Z,19.50
2022-07-29T02:57:26.218Z,19.50
2022-07-29T02:59:53.011Z,19.50
2022-07-29T03:02:19.821Z,19.40
2022-07-29T03:04:46.691Z,19.50
2022-07-29T03:07:14.315Z,19.40
2022-07-29T03:09:42.814Z,19.30
2022-07-29T03:12:09.716Z,19.30
2022-07-29T03:14:36.513Z,19.30
2022-07-29T03:17:03.305Z,19.30
2022-07-29T03:19:30.068Z,19.20
2022-07-29T03:21:57.595Z,19.20
2022-07-29T03:24:28.230Z,19.20
2022-07-29T03:26:55.863Z,19.10
2022-07-29T03:29:22.637Z,19.20
2022-07-29T03:31:51.521Z,19.10
2022-07-29T03:34:18.908Z,19.10
2022-07-29T03:36:47.166Z,19.10
2022-07-29T03:39:14.848Z,19.00
2022-07-29T03:41:42.762Z,19.10
2022-07-29T03:44:09.771Z,19.10
2022-07-29T03:46:36.636Z,19.10
2022-07-29T03:49:04.154Z,19.20
2022-07-29T03:51:33.415Z,19.20
2022-07-29T03:54:05.027Z,19.30
2022-07-29T03:56:38.353Z,19.60
2022-07-29T03:59:05.198Z,19.90
2022-07-29T04:01:32.050Z,20.30
2022-07-29T04:03:59.101Z,20.80
2022-07-29T04:06:26.964Z,21.20
2022-07-29T04:08:53.722Z,21.50
2022-07-29T04:11:20.498Z,21.90
2022-07-29T04:13:47.302Z,22.40
2022-07-29T04:16:14.146Z,22.90
2022-07-29T04:18:40.934Z,23.30
2022-07-29T04:21:07.848Z,23.70
2022-07-29T04:23:34.656Z,24.20
2022-07-29T04:26:02.204Z,24.40
2022-07-29T04:28:29.219Z,24.80
2022-07-29T04:30:56.044Z,25.40
2022-07-29T04:33:22.846Z,25.80
2022-07-29T04:35:52.454Z,26.10
2022-07-29T04:38:21.933Z,26.50
2022-07-29T04:40:49.825Z,27.10
2022-07-29T04:43:16.910Z,27.50
2022-07-29T04:45:49.462Z,27.80
2022-07-29T04:48:16.247Z,28.20
2022-07-29T04:50:43.198Z,28.50
2022-07-29T04:53:10.049Z,28.60
2022-07-29T04:55:39.127Z,28.70
2022-07-29T04:58:06.143Z,29.10
2022-07-29T05:00:33.433Z,29.40
2022-07-29T05:03:00.828Z,29.70
2022-07-29T05:05:27.750Z,29.70
2022-07-29T05:07:54.620Z,29.80
2022-07-29T05:10:21.389Z,29.90
2022-07-29T05:12:48.267Z,30.30
2022-07-29T05:15:15.136Z,30.70
2022-07-29T05:17:41.901Z,31.00
2022-07-29T05:20:08.935Z,31.20
2022-07-29T05:22:35.686Z,31.40
2022-07-29T05:25:08.504Z,31.90
2022-07-29T05:27:36.287Z,32.40
2022-07-29T05:30:03.187Z,32.50
2022-07-29T05:32:29.949Z,32.90
2022-07-29T05:34:56.686Z,33.10
2022-07-29T05:37:23.569Z,33.40
2022-07-29T05:39:56.986Z,33.50
2022-07-29T05:42:24.812Z,33.70
2022-07-29T05:44:51.926Z,33.60
2022-07-29T05:47:18.763Z,33.70
2022-07-29T05:49:45.536Z,34.00
2022-07-29T05:52:12.301Z,34.10
2022-07-29T05:54:39.177Z,34.30
2022-07-29T05:57:06.470Z,34.50
2022-07-29T05:59:39.111Z,34.60
2022-07-29T06:02:06.278Z,35.20
2022-07-29T06:04:33.556Z,35.40
2022-07-29T06:07:00.358Z,35.60
2022-07-29T06:09:27.149Z,35.80
2022-07-29T06:11:53.949Z,35.90
2022-07-29T06:14:20.908Z,36.10
2022-07-29T06:16:47.732Z,36.20
2022-07-29T06:19:14.602Z,36.50
2022-07-29T06:21:44.615Z,36.60
2022-07-29T06:24:12.021Z,36.70
2022-07-29T06:26:40.017Z,36.70
2022-07-29T06:29:07.347Z,36.70
2022-07-29T06:31:34.110Z,37.00
2022-07-29T06:34:00.947Z,37.40
2022-07-29T06:36:31.214Z,37.80
2022-07-29T06:38:57.973Z,37.90
2022-07-29T06:41:24.884Z,38.10
2022-07-29T06:43:54.554Z,38.20
2022-07-29T06:46:22.514Z,38.10
2022-07-29T06:48:49.751Z,38.10
2022-07-29T06:51:21.806Z,38.60
2022-07-29T06:53:58.229Z,39.10
2022-07-29T06:56:26.885Z,39.70
2022-07-29T06:58:53.812Z,39.80
2022-07-29T07:01:21.103Z,39.50
2022-07-29T07:03:48.593Z,39.60
2022-07-29T07:06:15.410Z,39.60
2022-07-29T07:08:42.220Z,40.20
2022-07-29T07:11:09.669Z,40.60
2022-07-29T07:13:37.005Z,41.10
2022-07-29T07:16:04.039Z,41.50
2022-07-29T07:18:30.823Z,41.50
2022-07-29T07:20:57.814Z,41.70
2022-07-29T07:23:24.659Z,42.10
2022-07-29T07:25:51.553Z,41.70
2022-07-29T07:28:18.349Z,41.80
2022-07-29T07:30:51.577Z,41.60
2022-07-29T07:33:18.432Z,41.70
2022-07-29T07:35:45.454Z,41.80
2022-07-29T07:38:12.291Z,41.70
2022-07-29T07:40:39.096Z,42.00
2022-07-29T07:43:05.901Z,41.80
2022-07-29T07:45:34.011Z,41.70
2022-07-29T07:48:00.962Z,41.60
2022-07-29T07:50:27.849Z,41.60
2022-07-29T07:52:56.265Z,41.50
2022-07-29T07:55:23.910Z,42.00
2022-07-29T07:57:50.774Z,42.70
2022-07-29T08:00:17.735Z,43.00
2022-07-29T08:02:46.156Z,43.20
2022-07-29T08:05:16.945Z,43.60
2022-07-29T08:07:44.807Z,43.70
2022-07-29T08:10:11.806Z,44.10
2022-07-29T08:12:38.635Z,44.50
2022-07-29T08:15:05.700Z,45.00
2022-07-29T08:17:35.362Z,45.40
2022-07-29T08:20:02.383Z,45.40
2022-07-29T08:22:30.144Z,45.60
2022-07-29T08:24:57.292Z,45.80
2022-07-29T08:27:43.087Z,46.30
2022-07-29T08:30:11.404Z,46.80
2022-07-29T08:32:55.220Z,46.80
2022-07-29T08:35:23.083Z,47.00
2022-07-29T08:37:50.079Z,47.10
2022-07-29T08:40:16.945Z,46.40
2022-07-29T08:42:49.073Z,46.20
2022-07-29T08:45:16.004Z,46.10
2022-07-29T08:47:45.967Z,46.00
2022-07-29T08:50:16.250Z,46.10
2022-07-29T08:52:43.135Z,46.10
2022-07-29T08:55:10.831Z,46.30
2022-07-29T08:57:37.616Z,46.70
2022-07-29T09:00:08.083Z,46.70
2022-07-29T09:02:43.250Z,46.60
2022-07-29T09:05:13.581Z,46.70
2022-07-29T09:07:40.617Z,47.10
2022-07-29T09:10:07.641Z,47.60
2022-07-29T09:12:38.037Z,47.70
2022-07-29T09:15:05.370Z,47.60
2022-07-29T09:17:50.448Z,47.50
2022-07-29T09:20:18.178Z,47.70
2022-07-29T09:22:48.207Z,47.60
2022-07-29T09:25:14.979Z,47.70
2022-07-29T09:27:42.147Z,47.90
2022-07-29T09:30:11.686Z,48.10
2022-07-29T09:32:57.550Z,48.00
2022-07-29T09:35:25.600Z,48.00
2022-07-29T09:37:52.518Z,47.20
2022-07-29T09:40:20.628Z,46.10
2022-07-29T09:42:55.481Z,45.40
2022-07-29T09:45:30.382Z,45.20
2022-07-29T09:47:59.965Z,45.40
2022-07-29T09:50:41.621Z,45.40
2022-07-29T09:53:10.541Z,45.00
2022-07-29T09:55:54.653Z,44.40
2022-07-29T09:58:22.636Z,43.40
2022-07-29T10:00:50.737Z,42.70
2022-07-29T10:03:17.834Z,41.90
2022-07-29T10:05:44.904Z,41.00
2022-07-29T10:08:13.340Z,40.30
2022-07-29T10:10:41.105Z,39.70
2022-07-29T10:13:15.387Z,39.10
2022-07-29T10:15:44.775Z,38.60
2022-07-29T10:18:12.301Z,38.20
2022-07-29T10:20:39.100Z,37.90
2022-07-29T10:23:06.134Z,37.60
2022-07-29T10:25:33.005Z,37.00
2022-07-29T10:27:59.819Z,36.70
2022-07-29T10:30:26.670Z,36.40
2022-07-29T10:33:08.865Z,36.30
2022-07-29T10:35:54.472Z,36.30
2022-07-29T10:38:33.216Z,36.20
2022-07-29T10:41:21.468Z,36.10
2022-07-29T10:43:48.375Z,36.00
2022-07-29T10:46:19.521Z,36.00
2022-07-29T10:49:05.081Z,36.00
2022-07-29T10:51:53.046Z,36.00
2022-07-29T10:54:20.146Z,35.90
2022-07-29T10:56:47.775Z,35.80
2022-07-29T10:59:21.468Z,35.80
2022-07-29T11:04:47.089Z,35.90
2022-07-29T11:07:17.469Z,35.90
2022-07-29T11:09:47.676Z,35.80
2022-07-29T11:12:39.440Z,35.80
2022-07-29T11:15:07.245Z,35.80
2022-07-29T11:17:53.313Z,35.80
2022-07-29T11:20:38.800Z,35.80
2022-07-29T11:23:33.339Z,35.80
2022-07-29T11:26:27.522Z,35.80
2022-07-29T11:28:56.173Z,35.80
2022-07-29T11:31:32.206Z,35.70
2022-07-29T11:34:20.859Z,35.70
2022-07-29T11:37:06.674Z,35.70
2022-07-29T11:39:37.204Z,35.70
2022-07-29T11:42:28.257Z,35.60
2022-07-29T11:45:40.979Z,35.50
2022-07-29T11:47:54.217Z,35.50
2022-07-29T11:50:28.430Z,35.40
2022-07-29T11:52:55.298Z,35.30
2022-07-29T11:55:23.683Z,35.30
2022-07-29T11:58:03.982Z,35.20
2022-07-29T12:00:49.615Z,35.20
2022-07-29T12:03:35.268Z,35.30
2022-07-29T12:06:03.805Z,35.40
2022-07-29T12:08:32.129Z,35.30
2022-07-29T12:10:59.521Z,35.40
2022-07-29T12:13:37.036Z,35.30
2022-07-29T12:16:07.963Z,35.30
2022-07-29T12:18:40.045Z,35.20
2022-07-29T12:21:12.558Z,35.00
2022-07-29T12:23:39.468Z,35.00
2022-07-29T12:26:10.871Z,35.10
2022-07-29T12:28:49.115Z,35.10
2022-07-29T12:31:41.965Z,35.20
2022-07-29T12:34:03.998Z,35.30
2022-07-29T12:36:31.103Z,35.40
2022-07-29T12:38:57.911Z,35.50
2022-07-29T12:41:29.290Z,35.50
2022-07-29T12:44:00.627Z,35.60
2022-07-29T12:46:29.797Z,35.50
2022-07-29T12:49:06.113Z,35.40
2022-07-29T12:51:40.481Z,35.40
2022-07-29T12:57:09.547Z,35.20
2022-07-29T12:59:59.321Z,35.10
2022-07-29T13:02:26.189Z,35.10
2022-07-29T13:04:57.117Z,35.20
2022-07-29T13:07:54.287Z,35.20
2022-07-29T13:10:15.457Z,35.30
2022-07-29T13:13:01.198Z,35.50
2022-07-29T13:15:28.473Z,35.50
2022-07-29T13:17:55.234Z,35.60
2022-07-29T13:20:25.445Z,35.60
2022-07-29T13:22:52.219Z,35.60
2022-07-29T13:25:25.762Z,35.70
2022-07-29T13:27:52.629Z,35.70
2022-07-29T13:30:20.149Z,35.70
2022-07-29T13:32:53.221Z,35.70
2022-07-29T13:35:20.476Z,35.70
2022-07-29T13:37:49.839Z,35.60
2022-07-29T13:44:04.484Z,35.60
2022-07-29T13:46:31.326Z,35.60
2022-07-29T13:48:58.238Z,35.60
2022-07-29T13:51:25.074Z,35.60
2022-07-29T13:53:51.882Z,35.60
2022-07-29T13:56:18.640Z,35.60
2022-07-29T13:58:46.001Z,35.60
2022-07-29T14:01:13.700Z,35.50
2022-07-29T14:03:45.655Z,35.50
2022-07-29T14:06:12.846Z,35.50
2022-07-29T14:08:39.605Z,35.60
2022-07-29T14:11:06.397Z,35.60
2022-07-29T14:13:33.181Z,35.60
2022-07-29T14:16:00.145Z,35.50
2022-07-29T14:18:26.985Z,35.60
2022-07-29T14:20:53.823Z,35.50
2022-07-29T14:23:20.675Z,35.50
2022-07-29T14:25:47.476Z,35.40
2022-07-29T14:28:16.265Z,35.30
2022-07-29T14:30:43.432Z,35.30
2022-07-29T14:33:11.244Z,35.30
2022-07-29T14:35:38.117Z,35.30
2022-07-29T14:38:04.892Z,35.30
2022-07-29T14:40:31.673Z,35.30
2022-07-29T14:42:58.482Z,35.30
2022-07-29T14:45:25.282Z,35.20
2022-07-29T14:47:56.515Z,35.20
2022-07-29T14:50:29.893Z,35.20
2022-07-29T14:52:59.243Z,35.30
2022-07-29T14:55:26.091Z,35.30
2022-07-29T14:57:57.950Z,35.20
2022-07-29T15:00:33.299Z,35.10
2022-07-29T15:03:02.260Z,34.90
2022-07-29T15:05:29.964Z,34.70
2022-07-29T15:07:56.909Z,34.60
2022-07-29T15:10:24.902Z,34.50
2022-07-29T15:12:51.714Z,34.50
2022-07-29T15:15:18.497Z,34.60
2022-07-29T15:17:45.296Z,34.70
2022-07-29T15:20:13.053Z,34.80
2022-07-29T15:22:40.324Z,34.90
2022-07-29T15:25:07.236Z,34.90
2022-07-29T15:27:34.061Z,34.90
2022-07-29T15:30:00.845Z,34.90
2022-07-29T15:32:27.620Z,34.90
2022-07-29T15:34:54.386Z,34.80
2022-07-29T15:37:21.481Z,34.90
2022-07-29T15:39:48.251Z,34.90
2022-07-29T15:42:15.039Z,34.90
2022-07-29T15:44:44.643Z,34.90
2022-07-29T15:47:11.415Z,34.90
2022-07-29T15:49:47.721Z,34.80
2022-07-29T15:52:25.259Z,34.80
2022-07-29T15:54:53.637Z,34.70
2022-07-29T15:57:20.428Z,34.60
2022-07-29T15:59:47.224Z,34.50
2022-07-29T16:02:13.976Z,34.50
2022-07-29T16:04:40.805Z,34.40
2022-07-29T16:07:07.745Z,34.40
2022-07-29T16:09:34.521Z,34.40
2022-07-29T16:12:01.297Z,34.30
2022-07-29T16:14:28.883Z,34.30
2022-07-29T16:16:56.438Z,34.30
2022-07-29T16:19:23.547Z,34.20
2022-07-29T16:21:50.339Z,34.20
2022-07-29T16:24:17.145Z,33.90
2022-07-29T16:26:43.889Z,33.90
2022-07-29T16:29:10.655Z,33.80
2022-07-29T16:31:37.449Z,33.90
2022-07-29T16:34:04.291Z,33.90
2022-07-29T16:36:31.498Z,33.90
2022-07-29T16:38:58.271Z,33.90
2022-07-29T16:41:25.094Z,33.90
2022-07-29T16:43:51.903Z,33.80
2022-07-29T16:46:19.366Z,33.80
2022-07-29T16:48:47.597Z,33.80
2022-07-29T16:51:15.415Z,33.80
2022-07-29T16:53:42.340Z,33.70
2022-07-29T16:56:12.849Z,33.60
2022-07-29T16:58:43.536Z,33.50
2022-07-29T17:01:11.414Z,33.50
2022-07-29T17:04:00.172Z,33.40
2022-07-29T17:06:28.744Z,33.40
2022-07-29T17:08:56.722Z,33.30
2022-07-29T17:11:52.530Z,33.30
2022-07-29T17:14:10.308Z,33.20
2022-07-29T17:16:37.147Z,33.20
2022-07-29T17:19:04.081Z,33.00
2022-07-29T17:21:30.902Z,33.00
2022-07-29T17:23:59.459Z,32.90
2022-07-29T17:26:28.015Z,32.90
2022-07-29T17:28:55.321Z,32.80
2022-07-29T17:31:22.208Z,32.70
2022-07-29T17:33:49.078Z,32.70
2022-07-29T17:36:24.887Z,32.60
2022-07-29T17:38:52.912Z,32.50
2022-07-29T17:41:20.021Z,32.40
2022-07-29T17:43:46.871Z,32.40
2022-07-29T17:46:13.727Z,32.30
2022-07-29T17:48:41.230Z,32.20
2022-07-29T17:51:08.289Z,32.10
2022-07-29T17:53:35.152Z,32.10
2022-07-29T17:56:02.153Z,32.00
2022-07-29T17:58:28.952Z,31.90
2022-07-29T18:00:55.803Z,31.80
2022-07-29T18:03:22.716Z,31.80
2022-07-29T18:05:49.677Z,31.70
2022-07-29T18:08:17.123Z,31.70
2022-07-29T18:16:05.233Z,31.50
2022-07-29T18:18:32.035Z,31.40
2022-07-29T18:20:58.829Z,31.40
2022-07-29T18:23:25.669Z,31.30
2022-07-29T18:25:52.493Z,31.10
2022-07-29T18:28:19.292Z,31.00
2022-07-29T18:30:47.591Z,30.90
2022-07-29T18:33:22.065Z,30.70
2022-07-29T18:35:50.025Z,30.70
2022-07-29T18:38:16.910Z,30.50
2022-07-29T18:40:45.797Z,30.40
2022-07-29T18:43:12.887Z,30.20
2022-07-29T18:45:39.773Z,30.10
2022-07-29T18:48:12.633Z,30.00
2022-07-29T18:50:40.615Z,30.00
2022-07-29T18:53:07.526Z,29.90
2022-07-29T18:55:34.333Z,29.90
2022-07-29T18:58:01.195Z,29.90
2022-07-29T19:00:28.111Z,29.80
2022-07-29T19:02:56.827Z,29.70
2022-07-29T19:05:23.785Z,29.60
2022-07-29T19:07:50.770Z,29.60
2022-07-29T19:10:17.693Z,29.50
2022-07-29T19:12:44.535Z,29.30
2022-07-29T19:15:11.520Z,29.10
2022-07-29T19:17:38.902Z,28.90
2022-07-29T19:20:06.529Z,28.80
2022-07-29T19:22:34.244Z,28.60
2022-07-29T19:25:01.102Z,28.50
2022-07-29T19:27:28.042Z,28.50
2022-07-29T19:29:58.785Z,28.50
2022-07-29T19:32:26.244Z,28.50
2022-07-29T19:35:11.353Z,28.50
2022-07-29T19:37:38.143Z,28.40
2022-07-29T19:40:05.714Z,28.30
2022-07-29T19:42:32.671Z,28.20
2022-07-29T19:44:59.452Z,28.20
2022-07-29T19:47:26.254Z,28.10
2022-07-29T19:49:53.099Z,28.10
2022-07-29T19:52:19.918Z,28.10
2022-07-29T19:54:46.841Z,28.00
2022-07-29T19:57:14.158Z,27.80
2022-07-29T19:59:41.264Z,27.70
2022-07-29T20:02:11.010Z,27.50
2022-07-29T20:04:38.724Z,27.40
2022-07-29T20:07:05.742Z,27.30
2022-07-29T20:09:32.519Z,27.30
2022-07-29T20:11:59.329Z,27.30
2022-07-29T20:14:26.140Z,27.30
2022-07-29T20:16:54.561Z,27.30
2022-07-29T20:19:21.446Z,27.30
2022-07-29T20:21:48.356Z,27.20
2022-07-29T20:24:15.181Z,27.20
2022-07-29T20:26:41.964Z,27.10
2022-07-29T20:29:09.218Z,27.00
2022-07-29T20:31:36.125Z,26.90
2022-07-29T20:34:03.044Z,26.80
2022-07-29T20:36:29.896Z,26.80
2022-07-29T20:38:56.717Z,26.80
2022-07-29T20:41:23.575Z,26.90
2022-07-29T20:43:50.366Z,26.90
2022-07-29T20:46:18.012Z,26.80
2022-07-29T20:48:45.235Z,26.80
2022-07-29T20:51:12.091Z,26.80
2022-07-29T20:53:39.952Z,26.80
2022-07-29T20:56:06.849Z,26.80
2022-07-29T20:58:34.187Z,26.80
2022-07-29T21:01:01.088Z,26.80
2022-07-29T21:03:30.078Z,26.80
2022-07-29T21:05:56.836Z,26.70
2022-07-29T21:08:23.606Z,26.70
2022-07-29T21:10:50.502Z,26.60
2022-07-29T21:13:17.413Z,26.50
2022-07-29T21:15:46.618Z,26.40
2022-07-29T21:18:32.397Z,26.40
2022-07-29T21:20:59.824Z,26.40
2022-07-29T21:23:26.916Z,26.40
2022-07-29T21:25:53.882Z,26.40
2022-07-29T21:28:26.617Z,26.40
2022-07-29T21:30:53.924Z,26.30
2022-07-29T21:33:20.774Z,26.30
2022-07-29T21:38:34.611Z,26.30
2022-07-29T21:41:01.484Z,26.20
2022-07-29T21:43:28.959Z,26.20
2022-07-29T21:45:56.210Z,26.20
2022-07-29T21:48:23.203Z,26.10
2022-07-29T21:50:50.114Z,26.10
2022-07-29T21:53:16.920Z,26.10
2022-07-29T21:55:43.737Z,26.00
2022-07-29T21:58:15.456Z,26.00
2022-07-29T22:00:42.496Z,25.90
2022-07-29T22:03:09.362Z,25.90
2022-07-29T22:05:36.313Z,25.80
2022-07-29T22:08:03.320Z,25.80
2022-07-29T22:10:30.664Z,25.80
2022-07-29T22:12:57.894Z,25.80
2022-07-29T22:15:24.865Z,25.80
2022-07-29T22:17:51.650Z,25.80
2022-07-29T22:20:18.638Z,25.80
2022-07-29T22:22:45.472Z,25.70
2022-07-29T22:25:12.246Z,25.60
2022-07-29T22:27:39.075Z,25.60
2022-07-29T22:30:06.308Z,25.50
2022-07-29T22:32:33.171Z,25.50
2022-07-29T22:34:59.963Z,25.50
2022-07-29T22:37:26.746Z,25.40
2022-07-29T22:39:53.554Z,25.30
2022-07-29T22:42:20.404Z,25.20
2022-07-29T22:44:47.163Z,25.20
2022-07-29T22:47:13.944Z,25.20
2022-07-29T22:49:40.758Z,25.10
2022-07-29T22:52:07.556Z,25.10
2022-07-29T22:54:34.357Z,25.10
2022-07-29T22:57:01.929Z,25.10
2022-07-29T22:59:28.958Z,25.10
2022-07-29T23:01:55.793Z,25.00
2022-07-29T23:04:23.836Z,25.00
2022-07-29T23:06:51.202Z,24.90
2022-07-29T23:09:18.778Z,24.90
2022-07-29T23:11:46.211Z,24.70
2022-07-29T23:14:13.158Z,24.70
2022-07-29T23:16:40.000Z,24.70
2022-07-29T23:19:06.846Z,24.60
2022-07-29T23:21:33.709Z,24.50
2022-07-29T23:24:00.534Z,24.60
2022-07-29T23:26:28.181Z,24.60
2022-07-29T23:28:54.997Z,24.50
2022-07-29T23:31:21.868Z,24.50
2022-07-29T23:33:48.673Z,24.50
2022-07-29T23:36:15.483Z,24.40
2022-07-29T23:38:42.477Z,24.40
2022-07-29T23:41:09.924Z,24.40
2022-07-29T23:43:37.137Z,24.40
2022-07-29T23:46:04.055Z,24.40
2022-07-29T23:48:34.681Z,24.30
2022-07-29T23:51:01.721Z,24.30
2022-07-29T23:53:28.652Z,24.20
2022-07-29T23:55:55.638Z,24.20
2022-07-29T23:58:22.535Z,24.20
